RYR23YV LICJ-LIBD
Flight info
| Callsign | RYR23YV |
|---|---|
| Flight time | 0h 46m |
| Altitude | 32000 |
| Route | ROSAS DCT AMANO P748 BUMOK |
| Aircraft | B738/M-SDE3FGILRWY/SB1 |
Departure
| Time | 2026-04-26 12:58 |
|---|---|
| Airport | Falcone–Borsellino Airport (LICJ) |
Arrival
| Time | 2026-04-26 13:45 |
|---|---|
| Airport | Bari Karol Wojtyła International Airport (LIBD) |
| Time | Latitude | Longitude | Altitude | Speed | Heading |
|---|---|---|---|---|---|
| 2026-04-26 12:01 | 38.18325 | 13.10219 | 52 ft | 0 kts | 247° |
| 2026-04-26 12:50 | 38.18329 | 13.10231 | 52 ft | 3 kts | 247° |
| 2026-04-26 12:51 | 38.18337 | 13.10255 | 47 ft | 2 kts | 247° |
| 2026-04-26 12:51 | 38.18348 | 13.10279 | 45 ft | 3 kts | 219° |
| 2026-04-26 12:51 | 38.18368 | 13.10291 | 45 ft | 3 kts | 180° |
| 2026-04-26 12:51 | 38.18382 | 13.10289 | 50 ft | 0 kts | 157° |
| 2026-04-26 12:52 | 38.18365 | 13.10298 | 47 ft | 2 kts | 157° |
| 2026-04-26 12:52 | 38.18364 | 13.10299 | 47 ft | 0 kts | 157° |
| 2026-04-26 12:54 | 38.18358 | 13.10302 | 50 ft | 3 kts | 157° |
| 2026-04-26 12:54 | 38.18302 | 13.10334 | 50 ft | 13 kts | 151° |
| 2026-04-26 12:54 | 38.18220 | 13.10355 | 52 ft | 13 kts | 219° |
| 2026-04-26 12:54 | 38.18170 | 13.10235 | 50 ft | 20 kts | 247° |
| 2026-04-26 12:55 | 38.18106 | 13.10044 | 52 ft | 26 kts | 247° |
| 2026-04-26 12:55 | 38.18035 | 13.09832 | 52 ft | 25 kts | 247° |
| 2026-04-26 12:55 | 38.17968 | 13.09635 | 50 ft | 23 kts | 246° |
| 2026-04-26 12:55 | 38.17905 | 13.09449 | 51 ft | 23 kts | 247° |
| 2026-04-26 12:56 | 38.17845 | 13.09268 | 52 ft | 22 kts | 247° |
| 2026-04-26 12:56 | 38.17786 | 13.09092 | 49 ft | 21 kts | 247° |
| 2026-04-26 12:56 | 38.17728 | 13.08945 | 52 ft | 17 kts | 227° |
| 2026-04-26 12:56 | 38.17639 | 13.08855 | 50 ft | 16 kts | 217° |
| 2026-04-26 12:57 | 38.17552 | 13.08770 | 50 ft | 16 kts | 217° |
| 2026-04-26 12:57 | 38.17475 | 13.08767 | 52 ft | 7 kts | 125° |
| 2026-04-26 12:57 | 38.17492 | 13.08837 | 51 ft | 14 kts | 66° |
| 2026-04-26 12:58 | 38.17909 | 13.10073 | 51 ft | 133 kts | 67° |
| 2026-04-26 12:58 | 38.18309 | 13.11271 | 378 ft | 150 kts | 65° |
| 2026-04-26 12:58 | 38.18726 | 13.12508 | 953 ft | 157 kts | 65° |
| 2026-04-26 12:58 | 38.19160 | 13.13787 | 1581 ft | 162 kts | 65° |
| 2026-04-26 12:59 | 38.19652 | 13.15217 | 1835 ft | 189 kts | 65° |
| 2026-04-26 12:59 | 38.20211 | 13.16824 | 2226 ft | 204 kts | 65° |
| 2026-04-26 12:59 | 38.20818 | 13.18471 | 2751 ft | 211 kts | 57° |
| 2026-04-26 12:59 | 38.21824 | 13.19827 | 3317 ft | 218 kts | 41° |
| 2026-04-26 13:00 | 38.23154 | 13.20880 | 3691 ft | 239 kts | 24° |
| 2026-04-26 13:00 | 38.24768 | 13.21723 | 4003 ft | 260 kts | 22° |
| 2026-04-26 13:00 | 38.26485 | 13.22604 | 4604 ft | 270 kts | 22° |
| 2026-04-26 13:00 | 38.28243 | 13.23513 | 5306 ft | 275 kts | 22° |
| 2026-04-26 13:01 | 38.30022 | 13.24442 | 6105 ft | 276 kts | 22° |
| 2026-04-26 13:01 | 38.31810 | 13.25383 | 6886 ft | 278 kts | 22° |
| 2026-04-26 13:01 | 38.33585 | 13.26323 | 7634 ft | 281 kts | 22° |
| 2026-04-26 13:01 | 38.35401 | 13.27288 | 8409 ft | 284 kts | 22° |
| 2026-04-26 13:02 | 38.37231 | 13.28262 | 9208 ft | 287 kts | 23° |
| 2026-04-26 13:02 | 38.39087 | 13.29253 | 10033 ft | 290 kts | 23° |
| 2026-04-26 13:02 | 38.40979 | 13.30262 | 10593 ft | 303 kts | 23° |
| 2026-04-26 13:02 | 38.43008 | 13.31346 | 10793 ft | 327 kts | 23° |
| 2026-04-26 13:03 | 38.45146 | 13.32488 | 11311 ft | 338 kts | 23° |
| 2026-04-26 13:03 | 38.47305 | 13.33641 | 12033 ft | 342 kts | 22° |
| 2026-04-26 13:03 | 38.49518 | 13.34825 | 12780 ft | 347 kts | 22° |
| 2026-04-26 13:03 | 38.51753 | 13.36020 | 13615 ft | 350 kts | 22° |
| 2026-04-26 13:04 | 38.54017 | 13.37233 | 14307 ft | 356 kts | 22° |
| 2026-04-26 13:04 | 38.56319 | 13.38466 | 15066 ft | 359 kts | 22° |
| 2026-04-26 13:04 | 38.58634 | 13.39708 | 15824 ft | 363 kts | 22° |
| 2026-04-26 13:04 | 38.60983 | 13.40969 | 16506 ft | 369 kts | 22° |
| 2026-04-26 13:05 | 38.63359 | 13.42245 | 17364 ft | 370 kts | 23° |
| 2026-04-26 13:05 | 38.65724 | 13.43517 | 18015 ft | 376 kts | 23° |
| 2026-04-26 13:05 | 38.68160 | 13.44827 | 18700 ft | 380 kts | 23° |
| 2026-04-26 13:05 | 38.70600 | 13.46141 | 19403 ft | 382 kts | 23° |
| 2026-04-26 13:06 | 38.73076 | 13.47474 | 19975 ft | 388 kts | 23° |
| 2026-04-26 13:06 | 38.75565 | 13.48817 | 20682 ft | 389 kts | 22° |
| 2026-04-26 13:06 | 38.78071 | 13.50169 | 21294 ft | 393 kts | 22° |
| 2026-04-26 13:06 | 38.80614 | 13.51542 | 21893 ft | 397 kts | 22° |
| 2026-04-26 13:07 | 38.83131 | 13.52902 | 22565 ft | 399 kts | 22° |
| 2026-04-26 13:07 | 38.85716 | 13.54284 | 23064 ft | 405 kts | 21° |
| 2026-04-26 13:07 | 38.88365 | 13.55547 | 23708 ft | 407 kts | 19° |
| 2026-04-26 13:07 | 38.91066 | 13.56744 | 24190 ft | 411 kts | 18° |
| 2026-04-26 13:08 | 38.93787 | 13.57924 | 24686 ft | 413 kts | 18° |
| 2026-04-26 13:08 | 38.96514 | 13.59110 | 25217 ft | 415 kts | 18° |
| 2026-04-26 13:08 | 38.99228 | 13.60302 | 25673 ft | 418 kts | 18° |
| 2026-04-26 13:08 | 39.01994 | 13.61529 | 26155 ft | 421 kts | 19° |
| 2026-04-26 13:09 | 39.04780 | 13.62774 | 26595 ft | 425 kts | 19° |
| 2026-04-26 13:09 | 39.07573 | 13.64027 | 27153 ft | 424 kts | 19° |
| 2026-04-26 13:09 | 39.10352 | 13.65277 | 27841 ft | 421 kts | 19° |
| 2026-04-26 13:09 | 39.13125 | 13.66527 | 28415 ft | 421 kts | 19° |
| 2026-04-26 13:10 | 39.15854 | 13.67757 | 29027 ft | 419 kts | 19° |
| 2026-04-26 13:10 | 39.18607 | 13.68999 | 29599 ft | 419 kts | 19° |
| 2026-04-26 13:10 | 39.21352 | 13.70238 | 30207 ft | 417 kts | 19° |
| 2026-04-26 13:10 | 39.24095 | 13.71477 | 30727 ft | 416 kts | 19° |
| 2026-04-26 13:11 | 39.26824 | 13.72710 | 31221 ft | 414 kts | 19° |
| 2026-04-26 13:11 | 39.29538 | 13.73939 | 31748 ft | 412 kts | 18° |
| 2026-04-26 13:11 | 39.32250 | 13.75167 | 32145 ft | 412 kts | 18° |
| 2026-04-26 13:11 | 39.34969 | 13.76398 | 32145 ft | 415 kts | 18° |
| 2026-04-26 13:12 | 39.40343 | 13.79000 | 32155 ft | 412 kts | 27° |
| 2026-04-26 13:12 | 39.44925 | 13.83352 | 32161 ft | 413 kts | 46° |
| 2026-04-26 13:13 | 39.48810 | 13.88838 | 32163 ft | 413 kts | 47° |
| 2026-04-26 13:13 | 39.52649 | 13.94372 | 32164 ft | 413 kts | 47° |
| 2026-04-26 13:14 | 39.56492 | 13.99856 | 32160 ft | 413 kts | 47° |
| 2026-04-26 13:14 | 39.60370 | 14.05356 | 32161 ft | 413 kts | 47° |
| 2026-04-26 13:15 | 39.64229 | 14.10830 | 32162 ft | 413 kts | 47° |
| 2026-04-26 13:15 | 39.67460 | 14.15420 | 32160 ft | 413 kts | 47° |
| 2026-04-26 13:16 | 39.71993 | 14.21872 | 32165 ft | 413 kts | 47° |
| 2026-04-26 13:16 | 39.75839 | 14.27358 | 32160 ft | 413 kts | 47° |
| 2026-04-26 13:17 | 39.81635 | 14.35643 | 32161 ft | 413 kts | 47° |
| 2026-04-26 13:18 | 39.87412 | 14.43924 | 32158 ft | 413 kts | 47° |
| 2026-04-26 13:18 | 39.91244 | 14.49434 | 31953 ft | 407 kts | 47° |
| 2026-04-26 13:19 | 39.93123 | 14.52144 | 31702 ft | 399 kts | 47° |
| 2026-04-26 13:19 | 39.94982 | 14.54829 | 31333 ft | 396 kts | 47° |
| 2026-04-26 13:19 | 39.96822 | 14.57488 | 30996 ft | 393 kts | 47° |
| 2026-04-26 13:19 | 39.98655 | 14.60138 | 30647 ft | 391 kts | 47° |
| 2026-04-26 13:20 | 40.00450 | 14.62736 | 30306 ft | 388 kts | 47° |
| 2026-04-26 13:20 | 40.02256 | 14.65350 | 29908 ft | 386 kts | 47° |
| 2026-04-26 13:20 | 40.04047 | 14.67939 | 29558 ft | 382 kts | 47° |
| 2026-04-26 13:20 | 40.05824 | 14.70508 | 29176 ft | 379 kts | 47° |
| 2026-04-26 13:21 | 40.07578 | 14.73047 | 28829 ft | 375 kts | 47° |
| 2026-04-26 13:21 | 40.08733 | 14.74720 | 28574 ft | 373 kts | 47° |
| 2026-04-26 13:21 | 40.11046 | 14.78072 | 28101 ft | 369 kts | 47° |
| 2026-04-26 13:21 | 40.12762 | 14.80562 | 27738 ft | 367 kts | 47° |
| 2026-04-26 13:22 | 40.14441 | 14.83001 | 27385 ft | 364 kts | 47° |
| 2026-04-26 13:22 | 40.16151 | 14.85429 | 27014 ft | 362 kts | 46° |
| 2026-04-26 13:22 | 40.17881 | 14.87811 | 26725 ft | 358 kts | 45° |
| 2026-04-26 13:22 | 40.19603 | 14.90163 | 26364 ft | 357 kts | 45° |
| 2026-04-26 13:23 | 40.21317 | 14.92507 | 26026 ft | 355 kts | 45° |
| 2026-04-26 13:23 | 40.23023 | 14.94846 | 25676 ft | 353 kts | 45° |
| 2026-04-26 13:23 | 40.24698 | 14.97150 | 25344 ft | 352 kts | 45° |
| 2026-04-26 13:23 | 40.26387 | 14.99478 | 25004 ft | 351 kts | 45° |
| 2026-04-26 13:24 | 40.28071 | 15.01803 | 24664 ft | 350 kts | 45° |
| 2026-04-26 13:24 | 40.29746 | 15.04119 | 24323 ft | 349 kts | 45° |
| 2026-04-26 13:24 | 40.31419 | 15.06436 | 23973 ft | 349 kts | 45° |
| 2026-04-26 13:24 | 40.33068 | 15.08720 | 23611 ft | 349 kts | 45° |
| 2026-04-26 13:25 | 40.34736 | 15.11034 | 23215 ft | 348 kts | 45° |
| 2026-04-26 13:25 | 40.36399 | 15.13341 | 22845 ft | 346 kts | 45° |
| 2026-04-26 13:25 | 40.38055 | 15.15640 | 22497 ft | 344 kts | 45° |
| 2026-04-26 13:25 | 40.39696 | 15.17921 | 22163 ft | 342 kts | 45° |
| 2026-04-26 13:26 | 40.41309 | 15.20162 | 21820 ft | 340 kts | 45° |
| 2026-04-26 13:26 | 40.42928 | 15.22415 | 21474 ft | 339 kts | 45° |
| 2026-04-26 13:26 | 40.44542 | 15.24664 | 21119 ft | 338 kts | 45° |
| 2026-04-26 13:26 | 40.46153 | 15.26910 | 20773 ft | 337 kts | 45° |
| 2026-04-26 13:27 | 40.47763 | 15.29156 | 20438 ft | 336 kts | 45° |
| 2026-04-26 13:27 | 40.49364 | 15.31392 | 20099 ft | 335 kts | 45° |
| 2026-04-26 13:27 | 40.50961 | 15.33624 | 19759 ft | 334 kts | 45° |
| 2026-04-26 13:27 | 40.52551 | 15.35849 | 19424 ft | 333 kts | 45° |
| 2026-04-26 13:28 | 40.54120 | 15.38046 | 19102 ft | 332 kts | 44° |
| 2026-04-26 13:28 | 40.55703 | 15.40262 | 18771 ft | 331 kts | 44° |
| 2026-04-26 13:28 | 40.57280 | 15.42472 | 18428 ft | 331 kts | 44° |
| 2026-04-26 13:28 | 40.58858 | 15.44686 | 18061 ft | 331 kts | 44° |
| 2026-04-26 13:29 | 40.60428 | 15.46896 | 17704 ft | 330 kts | 46° |
| 2026-04-26 13:29 | 40.61399 | 15.48436 | 17473 ft | 330 kts | 51° |
| 2026-04-26 13:29 | 40.63174 | 15.51686 | 17013 ft | 329 kts | 53° |
| 2026-04-26 13:29 | 40.64478 | 15.54158 | 16673 ft | 328 kts | 53° |
| 2026-04-26 13:30 | 40.65785 | 15.56614 | 16338 ft | 326 kts | 53° |
| 2026-04-26 13:30 | 40.67103 | 15.59058 | 16020 ft | 324 kts | 52° |
| 2026-04-26 13:30 | 40.68399 | 15.61439 | 15707 ft | 323 kts | 52° |
| 2026-04-26 13:30 | 40.69711 | 15.63844 | 15381 ft | 322 kts | 52° |
| 2026-04-26 13:31 | 40.71016 | 15.66238 | 15073 ft | 321 kts | 53° |
| 2026-04-26 13:31 | 40.72102 | 15.68814 | 14747 ft | 322 kts | 65° |
| 2026-04-26 13:31 | 40.72929 | 15.71565 | 14437 ft | 321 kts | 67° |
| 2026-04-26 13:31 | 40.73707 | 15.74286 | 14133 ft | 320 kts | 68° |
| 2026-04-26 13:32 | 40.74494 | 15.77033 | 13794 ft | 319 kts | 67° |
| 2026-04-26 13:32 | 40.75286 | 15.79759 | 13438 ft | 317 kts | 67° |
| 2026-04-26 13:32 | 40.76083 | 15.82469 | 13104 ft | 315 kts | 67° |
| 2026-04-26 13:32 | 40.76880 | 15.85161 | 12773 ft | 314 kts | 67° |
| 2026-04-26 13:33 | 40.77677 | 15.87839 | 12469 ft | 311 kts | 67° |
| 2026-04-26 13:33 | 40.78459 | 15.90461 | 12143 ft | 310 kts | 67° |
| 2026-04-26 13:33 | 40.79248 | 15.93110 | 11835 ft | 309 kts | 67° |
| 2026-04-26 13:33 | 40.80033 | 15.95744 | 11513 ft | 307 kts | 67° |
| 2026-04-26 13:34 | 40.80813 | 15.98365 | 11214 ft | 305 kts | 68° |
| 2026-04-26 13:34 | 40.81589 | 16.00972 | 10899 ft | 304 kts | 67° |
| 2026-04-26 13:34 | 40.82445 | 16.03473 | 10585 ft | 301 kts | 54° |
| 2026-04-26 13:34 | 40.82879 | 16.04204 | 10477 ft | 300 kts | 45° |
| 2026-04-26 13:35 | 40.85638 | 16.06837 | 10180 ft | 288 kts | 29° |
| 2026-04-26 13:35 | 40.87341 | 16.08211 | 9884 ft | 287 kts | 30° |
| 2026-04-26 13:35 | 40.89040 | 16.09587 | 9648 ft | 283 kts | 30° |
| 2026-04-26 13:35 | 40.90672 | 16.10929 | 9476 ft | 277 kts | 30° |
| 2026-04-26 13:36 | 40.92292 | 16.12273 | 9323 ft | 271 kts | 31° |
| 2026-04-26 13:36 | 40.93879 | 16.13593 | 9206 ft | 269 kts | 30° |
| 2026-04-26 13:36 | 40.95466 | 16.14918 | 9097 ft | 269 kts | 31° |
| 2026-04-26 13:36 | 40.96436 | 16.15959 | 8971 ft | 273 kts | 48° |
| 2026-04-26 13:37 | 40.97346 | 16.18212 | 8674 ft | 283 kts | 68° |
| 2026-04-26 13:37 | 40.98039 | 16.20678 | 8307 ft | 287 kts | 68° |
| 2026-04-26 13:37 | 40.98775 | 16.23142 | 7947 ft | 287 kts | 64° |
| 2026-04-26 13:37 | 40.99617 | 16.25518 | 7588 ft | 288 kts | 64° |
| 2026-04-26 13:38 | 41.00410 | 16.27975 | 7217 ft | 290 kts | 66° |
| 2026-04-26 13:38 | 41.01138 | 16.30482 | 6857 ft | 291 kts | 68° |
| 2026-04-26 13:38 | 41.01835 | 16.32993 | 6483 ft | 288 kts | 69° |
| 2026-04-26 13:38 | 41.02503 | 16.35421 | 6200 ft | 278 kts | 68° |
| 2026-04-26 13:39 | 41.03160 | 16.37797 | 5832 ft | 271 kts | 68° |
| 2026-04-26 13:39 | 41.03804 | 16.40117 | 5488 ft | 265 kts | 68° |
| 2026-04-26 13:39 | 41.04436 | 16.42391 | 5174 ft | 257 kts | 68° |
| 2026-04-26 13:39 | 41.05041 | 16.44569 | 4815 ft | 247 kts | 67° |
| 2026-04-26 13:40 | 41.05615 | 16.46631 | 4493 ft | 236 kts | 67° |
| 2026-04-26 13:40 | 41.06174 | 16.48636 | 4187 ft | 226 kts | 66° |
| 2026-04-26 13:40 | 41.06713 | 16.50567 | 3899 ft | 220 kts | 68° |
| 2026-04-26 13:40 | 41.07244 | 16.52467 | 3601 ft | 218 kts | 68° |
| 2026-04-26 13:41 | 41.07762 | 16.54329 | 3313 ft | 217 kts | 68° |
| 2026-04-26 13:41 | 41.08284 | 16.56190 | 3032 ft | 214 kts | 67° |
| 2026-04-26 13:41 | 41.08794 | 16.58018 | 2679 ft | 209 kts | 66° |
| 2026-04-26 13:41 | 41.09288 | 16.59780 | 2432 ft | 201 kts | 67° |
| 2026-04-26 13:42 | 41.09766 | 16.61499 | 2153 ft | 195 kts | 67° |
| 2026-04-26 13:42 | 41.10232 | 16.63160 | 1915 ft | 189 kts | 68° |
| 2026-04-26 13:42 | 41.10679 | 16.64755 | 1642 ft | 179 kts | 66° |
| 2026-04-26 13:42 | 41.11091 | 16.66225 | 1453 ft | 160 kts | 67° |
| 2026-04-26 13:43 | 41.11469 | 16.67566 | 1240 ft | 151 kts | 68° |
| 2026-04-26 13:43 | 41.11834 | 16.68880 | 1058 ft | 153 kts | 65° |
| 2026-04-26 13:43 | 41.12198 | 16.70208 | 802 ft | 153 kts | 67° |
| 2026-04-26 13:43 | 41.12572 | 16.71527 | 601 ft | 152 kts | 66° |
| 2026-04-26 13:44 | 41.12945 | 16.72841 | 401 ft | 153 kts | 66° |
| 2026-04-26 13:44 | 41.13316 | 16.74166 | 171 ft | 153 kts | 67° |
| 2026-04-26 13:44 | 41.13651 | 16.75342 | 140 ft | 112 kts | 69° |
| 2026-04-26 13:44 | 41.13854 | 16.76060 | 134 ft | 65 kts | 69° |
| 2026-04-26 13:45 | 41.13995 | 16.76567 | 121 ft | 28 kts | 69° |
| 2026-04-26 13:45 | 41.13979 | 16.76696 | 122 ft | 13 kts | 113° |
| 2026-04-26 13:45 | 41.13909 | 16.76692 | 125 ft | 12 kts | 214° |
| 2026-04-26 13:45 | 41.13840 | 16.76629 | 131 ft | 12 kts | 214° |
| 2026-04-26 13:46 | 41.13785 | 16.76555 | 134 ft | 11 kts | 192° |
| 2026-04-26 13:46 | 41.13721 | 16.76565 | 135 ft | 8 kts | 201° |
| 2026-04-26 13:46 | 41.13686 | 16.76541 | 135 ft | 5 kts | 207° |
| 2026-04-26 13:46 | 41.13656 | 16.76513 | 135 ft | 7 kts | 227° |
| 2026-04-26 13:47 | 41.13630 | 16.76438 | 135 ft | 10 kts | 250° |
| 2026-04-26 13:47 | 41.13608 | 16.76376 | 135 ft | 4 kts | 213° |
| 2026-04-26 13:47 | 41.13580 | 16.76382 | 135 ft | 4 kts | 160° |
| 2026-04-26 13:47 | 41.13577 | 16.76383 | 135 ft | 0 kts | 160° |
| 2026-04-26 13:48 | 41.13575 | 16.76384 | 135 ft | 2 kts | 160° |
| 2026-04-26 13:48 | 41.13550 | 16.76397 | 135 ft | 3 kts | 159° |
| 2026-04-26 13:48 | 41.13540 | 16.76402 | 135 ft | 0 kts | 159° |